createdAt,value
2023-01-31T00:00:00.607Z,78.52
2023-01-31T00:01:23.618Z,78.44
2023-01-31T00:02:25.378Z,78.79
2023-01-31T00:03:27.282Z,78.91
2023-01-31T00:04:29.004Z,79.05
2023-01-31T00:05:30.691Z,79.14
2023-01-31T00:06:35.144Z,79.30
2023-01-31T00:07:37.461Z,79.70
2023-01-31T00:08:39.638Z,79.65
2023-01-31T00:09:41.406Z,79.66
2023-01-31T00:10:43.112Z,79.58
2023-01-31T00:11:45.006Z,79.66
2023-01-31T00:12:46.732Z,79.69
2023-01-31T00:13:49.290Z,79.67
2023-01-31T00:14:50.949Z,79.64
2023-01-31T00:15:56.150Z,79.47
2023-01-31T00:16:57.939Z,79.64
2023-01-31T00:17:59.744Z,79.73
2023-01-31T00:19:02.181Z,79.63
2023-01-31T00:20:04.368Z,79.61
2023-01-31T00:21:10.172Z,79.37
2023-01-31T00:22:11.863Z,79.34
2023-01-31T00:23:13.689Z,79.24
2023-01-31T00:24:15.688Z,78.80
2023-01-31T00:25:18.128Z,78.87
2023-01-31T00:26:40.353Z,78.74
2023-01-31T00:27:42.175Z,78.65
2023-01-31T00:28:45.263Z,78.96
2023-01-31T00:29:47.011Z,78.98
2023-01-31T00:30:48.770Z,79.25
2023-01-31T00:31:51.511Z,79.11
2023-01-31T00:32:53.389Z,79.09
2023-01-31T00:33:55.686Z,78.47
2023-01-31T00:34:57.396Z,78.59
2023-01-31T00:35:59.148Z,78.77
2023-01-31T00:37:00.954Z,79.08
2023-01-31T00:38:02.700Z,79.12
2023-01-31T00:39:05.963Z,79.13
2023-01-31T00:40:08.341Z,78.78
2023-01-31T00:41:10.437Z,78.77
2023-01-31T00:42:12.126Z,78.61
2023-01-31T00:43:13.923Z,78.32
2023-01-31T00:44:15.727Z,78.52
2023-01-31T00:45:17.756Z,78.30
2023-01-31T00:46:19.902Z,78.77
2023-01-31T00:47:21.609Z,78.61
2023-01-31T00:48:23.916Z,78.27
2023-01-31T00:49:25.714Z,78.09
2023-01-31T00:50:27.398Z,77.48
2023-01-31T00:51:29.081Z,77.56
2023-01-31T00:52:30.819Z,77.53
2023-01-31T00:53:32.819Z,77.34
2023-01-31T00:54:34.882Z,77.45
2023-01-31T00:55:36.749Z,77.28
2023-01-31T00:56:39.163Z,77.04
2023-01-31T00:57:40.894Z,77.23
2023-01-31T00:58:43.126Z,77.46
2023-01-31T00:59:44.828Z,77.86
2023-01-31T01:00:47.027Z,78.07
2023-01-31T01:01:48.809Z,78.30
2023-01-31T01:02:50.699Z,78.19
2023-01-31T01:03:52.924Z,78.41
2023-01-31T01:04:54.632Z,78.45
2023-01-31T01:05:56.667Z,78.96
2023-01-31T01:06:58.428Z,78.74
2023-01-31T01:08:00.156Z,78.75
2023-01-31T01:09:01.923Z,78.62
2023-01-31T01:10:05.395Z,78.54
2023-01-31T01:11:12.105Z,78.55
2023-01-31T01:12:13.828Z,78.42
2023-01-31T01:13:15.729Z,78.57
2023-01-31T01:14:18.383Z,78.01
2023-01-31T01:15:21.509Z,77.46
2023-01-31T01:16:26.411Z,77.53
2023-01-31T01:17:28.342Z,77.77
2023-01-31T01:18:30.056Z,77.92
2023-01-31T01:19:31.834Z,77.64
2023-01-31T01:20:35.459Z,77.57
2023-01-31T01:21:37.196Z,77.50
2023-01-31T01:22:39.333Z,77.55
2023-01-31T01:23:41.707Z,77.25
2023-01-31T01:24:44.769Z,77.44
2023-01-31T01:25:46.493Z,77.39
2023-01-31T01:26:48.218Z,77.08
2023-01-31T01:27:50.063Z,77.09
2023-01-31T01:28:54.359Z,77.01
2023-01-31T01:29:56.143Z,76.91
2023-01-31T01:30:57.951Z,77.00
2023-01-31T01:31:59.932Z,77.04
2023-01-31T01:33:01.813Z,77.10
2023-01-31T01:34:06.460Z,77.16
2023-01-31T01:35:08.491Z,77.21
2023-01-31T01:36:14.082Z,77.34
2023-01-31T01:37:15.837Z,77.74
2023-01-31T01:38:17.559Z,77.65
2023-01-31T01:39:19.495Z,77.35
2023-01-31T01:40:21.521Z,77.77
2023-01-31T01:41:23.425Z,78.01
2023-01-31T01:42:26.739Z,78.05
2023-01-31T01:43:55.185Z,78.34
2023-01-31T01:44:59.375Z,78.21
2023-01-31T01:46:01.357Z,78.46
2023-01-31T01:47:03.194Z,78.55
2023-01-31T01:48:07.857Z,78.53
2023-01-31T01:49:32.801Z,78.61
2023-01-31T01:50:41.595Z,78.45
2023-01-31T01:51:45.712Z,78.27
2023-01-31T01:53:19.079Z,78.29
2023-01-31T01:54:27.018Z,78.20
2023-01-31T01:55:37.504Z,78.00
2023-01-31T01:56:43.972Z,78.06
2023-01-31T01:57:50.302Z,78.25
2023-01-31T01:59:01.291Z,78.50
2023-01-31T02:00:15.375Z,78.87
2023-01-31T02:01:17.277Z,78.96
2023-01-31T02:02:19.756Z,78.98
2023-01-31T02:03:22.524Z,79.16
2023-01-31T02:04:32.093Z,78.91
2023-01-31T02:05:47.267Z,78.29
2023-01-31T02:06:49.727Z,78.19
2023-01-31T02:07:51.721Z,77.98
2023-01-31T02:08:55.096Z,77.57
2023-01-31T02:10:21.714Z,77.42
2023-01-31T02:11:29.993Z,77.32
2023-01-31T02:12:34.060Z,77.16
2023-01-31T02:13:36.257Z,77.31
2023-01-31T02:14:37.999Z,77.45
2023-01-31T02:15:39.687Z,77.65
2023-01-31T02:16:41.586Z,77.43
2023-01-31T02:17:43.727Z,77.69
2023-01-31T02:18:46.495Z,77.50
2023-01-31T02:20:25.271Z,77.78
2023-01-31T02:21:50.829Z,77.82
2023-01-31T02:23:04.664Z,77.87
2023-01-31T02:24:27.491Z,78.26
2023-01-31T02:26:04.189Z,78.25
2023-01-31T02:27:49.051Z,78.55
2023-01-31T02:29:10.429Z,78.78
2023-01-31T02:30:37.022Z,78.92
2023-01-31T02:32:16.538Z,79.25
2023-01-31T02:33:26.211Z,79.43
2023-01-31T02:34:54.340Z,79.48
2023-01-31T02:36:19.151Z,79.57
2023-01-31T02:37:44.126Z,79.65
2023-01-31T02:39:16.307Z,79.54
2023-01-31T02:40:22.919Z,79.01
2023-01-31T02:42:11.480Z,78.87
2023-01-31T02:43:46.923Z,78.62
2023-01-31T02:45:24.439Z,78.48
2023-01-31T02:46:39.339Z,78.74
2023-01-31T02:48:03.147Z,78.56
2023-01-31T02:49:17.492Z,78.19
2023-01-31T02:50:29.455Z,77.88
2023-01-31T02:51:39.600Z,77.66
2023-01-31T02:52:58.086Z,77.84
2023-01-31T02:54:14.288Z,78.04
2023-01-31T02:55:30.806Z,78.05
2023-01-31T02:56:35.737Z,78.03
2023-01-31T02:57:39.536Z,78.18
2023-01-31T02:58:45.438Z,78.15
2023-01-31T02:59:47.272Z,78.06
2023-01-31T03:00:50.199Z,77.98
2023-01-31T03:01:59.714Z,77.94
2023-01-31T03:03:04.647Z,77.84
2023-01-31T03:04:12.335Z,77.43
2023-01-31T03:05:19.976Z,77.56
2023-01-31T03:06:21.860Z,77.50
2023-01-31T03:07:28.778Z,77.32
2023-01-31T03:08:31.439Z,77.48
2023-01-31T03:09:37.120Z,77.05
2023-01-31T03:11:07.137Z,76.75
2023-01-31T03:12:32.959Z,76.67
2023-01-31T03:14:11.106Z,76.91
2023-01-31T03:15:39.113Z,77.04
2023-01-31T03:16:53.018Z,77.20
2023-01-31T03:18:05.894Z,77.52
2023-01-31T03:19:23.362Z,77.35
2023-01-31T03:20:34.377Z,77.73
2023-01-31T03:21:43.437Z,78.09
2023-01-31T03:23:19.256Z,77.68
2023-01-31T03:24:22.780Z,77.89
2023-01-31T03:25:28.014Z,77.62
2023-01-31T03:26:29.984Z,77.50
2023-01-31T03:27:32.625Z,77.47
2023-01-31T03:28:36.497Z,77.23
2023-01-31T03:29:39.806Z,76.84
2023-01-31T03:30:56.428Z,76.47
2023-01-31T03:32:03.222Z,76.34
2023-01-31T03:33:20.003Z,76.05
2023-01-31T03:34:21.898Z,76.10
2023-01-31T03:35:27.959Z,76.02
2023-01-31T03:36:38.528Z,76.07
2023-01-31T03:37:44.575Z,75.93
2023-01-31T03:38:57.514Z,76.09
2023-01-31T03:40:11.777Z,76.09
2023-01-31T03:41:52.324Z,76.06
2023-01-31T03:42:57.306Z,76.06
2023-01-31T03:44:07.303Z,76.21
2023-01-31T03:45:26.911Z,76.42
2023-01-31T03:46:34.791Z,76.46
2023-01-31T03:47:42.971Z,76.52
2023-01-31T03:48:49.173Z,76.68
2023-01-31T03:49:53.001Z,76.75
2023-01-31T03:51:00.683Z,76.77
2023-01-31T03:52:07.860Z,76.86
2023-01-31T03:53:25.586Z,77.10
2023-01-31T03:54:31.504Z,77.09
2023-01-31T03:55:57.197Z,77.35
2023-01-31T03:57:04.082Z,77.22
2023-01-31T03:58:08.337Z,77.61
2023-01-31T03:59:17.153Z,77.63
2023-01-31T04:00:21.652Z,77.61
2023-01-31T04:01:26.249Z,77.90
2023-01-31T04:02:34.203Z,77.87
2023-01-31T04:03:51.751Z,78.29
2023-01-31T04:05:03.289Z,78.63
2023-01-31T04:06:05.934Z,79.07
2023-01-31T04:07:07.710Z,79.65
2023-01-31T04:08:09.652Z,80.00
2023-01-31T04:09:11.546Z,80.09
2023-01-31T04:10:17.688Z,80.18
2023-01-31T04:11:21.766Z,80.39
2023-01-31T04:12:23.852Z,80.59
2023-01-31T04:13:25.648Z,80.48
2023-01-31T04:14:28.069Z,80.67
2023-01-31T04:15:29.978Z,80.80
2023-01-31T04:16:32.149Z,80.68
2023-01-31T04:17:34.075Z,80.61
2023-01-31T04:18:38.015Z,80.11
2023-01-31T04:19:40.604Z,79.87
2023-01-31T04:20:42.566Z,80.04
2023-01-31T04:21:44.344Z,79.78
2023-01-31T04:22:46.023Z,79.84
2023-01-31T04:23:48.360Z,79.67
2023-01-31T04:24:50.092Z,79.96
2023-01-31T04:25:54.219Z,79.63
2023-01-31T04:26:55.944Z,79.91
2023-01-31T04:27:57.640Z,79.61
2023-01-31T04:28:59.292Z,79.96
2023-01-31T04:30:00.995Z,79.87
2023-01-31T04:31:02.837Z,80.00
2023-01-31T04:32:05.043Z,79.99
2023-01-31T04:33:07.102Z,79.74
2023-01-31T04:34:09.299Z,79.87
2023-01-31T04:35:11.478Z,79.82
2023-01-31T04:36:13.167Z,79.96
2023-01-31T04:37:15.759Z,80.03
2023-01-31T04:38:17.882Z,80.07
2023-01-31T04:39:19.719Z,80.21
2023-01-31T04:40:21.418Z,80.42
2023-01-31T04:41:23.082Z,80.75
2023-01-31T04:42:24.766Z,81.44
2023-01-31T04:43:26.577Z,81.49
2023-01-31T04:44:28.304Z,81.80
2023-01-31T04:45:30.085Z,82.02
2023-01-31T04:46:32.100Z,82.37
2023-01-31T04:47:33.856Z,82.32
2023-01-31T04:48:35.565Z,82.34
2023-01-31T04:49:37.217Z,82.33
2023-01-31T04:50:38.939Z,82.37
2023-01-31T04:51:41.270Z,82.08
2023-01-31T04:52:42.954Z,81.93
2023-01-31T04:53:44.867Z,81.77
2023-01-31T04:54:46.628Z,81.61
2023-01-31T04:55:48.581Z,81.61
2023-01-31T04:56:50.350Z,81.60
2023-01-31T04:57:52.183Z,81.54
2023-01-31T04:58:54.010Z,81.42
2023-01-31T04:59:55.808Z,81.56
2023-01-31T05:00:57.850Z,81.48
2023-01-31T05:01:59.669Z,81.37
2023-01-31T05:03:01.748Z,81.43
2023-01-31T05:04:03.635Z,81.36
2023-01-31T05:05:07.083Z,81.41
2023-01-31T05:06:09.242Z,81.55
2023-01-31T05:07:10.926Z,81.39
2023-01-31T05:08:12.677Z,81.47
2023-01-31T05:09:14.638Z,81.58
2023-01-31T05:10:16.607Z,81.42
2023-01-31T05:11:18.695Z,81.42
2023-01-31T05:12:20.450Z,81.39
2023-01-31T05:13:22.190Z,81.33
2023-01-31T05:14:24.045Z,81.46
2023-01-31T05:15:25.737Z,81.42
2023-01-31T05:16:27.500Z,81.38
2023-01-31T05:17:29.309Z,81.21
2023-01-31T05:18:31.430Z,81.21
2023-01-31T05:19:33.152Z,81.28
2023-01-31T05:20:37.678Z,81.46
2023-01-31T05:21:39.383Z,81.42
2023-01-31T05:22:41.099Z,81.48
2023-01-31T05:23:42.771Z,81.68
2023-01-31T05:24:44.478Z,81.72
2023-01-31T05:25:50.417Z,81.64
2023-01-31T05:26:52.641Z,81.74
2023-01-31T05:27:54.651Z,81.73
2023-01-31T05:28:56.463Z,81.70
2023-01-31T05:29:58.435Z,81.89
2023-01-31T05:31:06.731Z,81.85
2023-01-31T05:32:08.941Z,81.88
2023-01-31T05:33:10.709Z,81.89
2023-01-31T05:34:12.439Z,81.94
2023-01-31T05:35:14.153Z,81.88
2023-01-31T05:36:15.902Z,81.78
2023-01-31T05:37:17.680Z,81.92
2023-01-31T05:38:19.419Z,81.76
2023-01-31T05:39:21.533Z,81.92
2023-01-31T05:40:23.704Z,82.07
2023-01-31T05:41:25.417Z,82.04
2023-01-31T05:42:27.188Z,82.07
2023-01-31T05:43:28.873Z,82.13
2023-01-31T05:44:30.569Z,82.33
2023-01-31T05:45:32.716Z,82.30
2023-01-31T05:46:34.441Z,82.33
2023-01-31T05:47:36.690Z,82.40
2023-01-31T05:48:38.768Z,82.25
2023-01-31T05:49:40.572Z,82.29
2023-01-31T05:50:42.245Z,82.36
2023-01-31T05:51:43.919Z,82.46
2023-01-31T05:52:59.431Z,82.63
2023-01-31T05:54:01.639Z,82.61
2023-01-31T05:55:03.568Z,82.77
2023-01-31T05:56:05.757Z,82.80
2023-01-31T05:57:07.470Z,82.81
2023-01-31T05:58:09.231Z,82.71
2023-01-31T05:59:11.066Z,82.66
2023-01-31T06:00:14.607Z,82.58
2023-01-31T06:01:22.158Z,82.31
2023-01-31T06:02:24.684Z,82.17
2023-01-31T06:03:26.547Z,82.16
2023-01-31T06:04:28.257Z,82.01
2023-01-31T06:05:30.766Z,82.07
2023-01-31T06:06:33.455Z,82.08
2023-01-31T06:07:35.359Z,82.08
2023-01-31T06:08:37.247Z,82.00
2023-01-31T06:09:38.981Z,81.92
2023-01-31T06:10:40.838Z,81.79
2023-01-31T06:11:42.718Z,82.11
2023-01-31T06:12:44.505Z,81.69
2023-01-31T06:13:46.279Z,81.75
2023-01-31T06:14:48.001Z,81.53
2023-01-31T06:15:50.320Z,81.37
2023-01-31T06:16:52.320Z,81.42
2023-01-31T06:17:54.157Z,81.31
2023-01-31T06:18:55.979Z,81.42
2023-01-31T06:19:57.861Z,81.34
2023-01-31T06:20:59.873Z,81.35
2023-01-31T06:22:01.718Z,81.40
2023-01-31T06:23:03.501Z,81.59
2023-01-31T06:24:05.623Z,81.67
2023-01-31T06:25:07.880Z,81.59
2023-01-31T06:26:09.968Z,81.68
2023-01-31T06:27:11.913Z,81.86
2023-01-31T06:28:13.798Z,81.89
2023-01-31T06:29:15.764Z,81.59
2023-01-31T06:30:17.977Z,81.86
2023-01-31T06:31:20.087Z,81.97
2023-01-31T06:32:21.931Z,81.76
2023-01-31T06:33:28.784Z,81.90
2023-01-31T06:34:40.242Z,82.03
2023-01-31T06:35:42.347Z,82.00
2023-01-31T06:36:44.078Z,82.12
2023-01-31T06:37:45.951Z,82.13
2023-01-31T06:38:52.333Z,82.08
2023-01-31T06:39:54.158Z,82.07
2023-01-31T06:40:56.793Z,81.87
2023-01-31T06:42:06.957Z,81.83
2023-01-31T06:43:08.835Z,81.77
2023-01-31T06:44:10.705Z,81.59
2023-01-31T06:45:12.539Z,81.54
2023-01-31T06:46:14.671Z,81.79
2023-01-31T06:47:16.458Z,81.83
2023-01-31T06:48:18.179Z,81.85
2023-01-31T06:49:19.912Z,81.97
2023-01-31T06:50:21.949Z,82.02
2023-01-31T06:51:23.808Z,81.91
2023-01-31T06:52:25.821Z,81.91
2023-01-31T06:53:27.940Z,81.82
2023-01-31T06:54:30.483Z,81.96
2023-01-31T06:55:32.633Z,81.97
2023-01-31T06:56:34.463Z,82.23
2023-01-31T06:57:36.235Z,82.31
2023-01-31T06:58:38.056Z,82.29
2023-01-31T06:59:39.826Z,82.29
2023-01-31T07:00:41.991Z,82.47
2023-01-31T07:01:43.816Z,82.36
2023-01-31T07:02:49.469Z,82.32
2023-01-31T07:03:51.340Z,82.31
2023-01-31T07:04:53.204Z,82.18
2023-01-31T07:05:54.901Z,81.80
2023-01-31T07:06:56.588Z,81.66
2023-01-31T07:07:58.463Z,81.85
2023-01-31T07:09:00.183Z,81.86
2023-01-31T07:10:02.240Z,81.85
2023-01-31T07:11:04.914Z,81.58
2023-01-31T07:12:06.721Z,81.50
2023-01-31T07:13:08.562Z,81.39
2023-01-31T07:14:10.278Z,81.34
2023-01-31T07:15:12.195Z,81.47
2023-01-31T07:16:14.998Z,81.62
2023-01-31T07:17:16.719Z,81.78
2023-01-31T07:18:18.478Z,81.66
2023-01-31T07:19:20.238Z,81.73
2023-01-31T07:20:22.227Z,81.66
2023-01-31T07:21:24.618Z,81.63
2023-01-31T07:22:26.403Z,81.72
2023-01-31T07:23:28.071Z,81.64
2023-01-31T07:24:30.184Z,81.63
2023-01-31T07:25:32.568Z,81.59
2023-01-31T07:26:34.385Z,81.34
2023-01-31T07:27:36.268Z,81.47
2023-01-31T07:28:38.021Z,81.08
2023-01-31T07:29:39.788Z,81.21
2023-01-31T07:30:41.548Z,81.19
2023-01-31T07:31:43.452Z,80.84
2023-01-31T07:32:45.603Z,80.88
2023-01-31T07:33:47.451Z,80.78
2023-01-31T07:34:49.818Z,80.72
2023-01-31T07:35:51.544Z,80.58
2023-01-31T07:36:53.262Z,80.68
2023-01-31T07:37:55.312Z,80.36
2023-01-31T07:38:58.091Z,80.00
2023-01-31T07:39:59.825Z,80.08
2023-01-31T07:41:02.507Z,79.83
2023-01-31T07:42:04.356Z,80.15
2023-01-31T07:43:06.018Z,80.01
2023-01-31T07:44:08.221Z,79.92
2023-01-31T07:45:22.890Z,79.78
2023-01-31T07:46:25.683Z,80.10
2023-01-31T07:47:27.539Z,80.34
2023-01-31T07:48:29.797Z,80.27
2023-01-31T07:49:32.051Z,80.20
2023-01-31T07:50:33.741Z,80.14
2023-01-31T07:51:35.530Z,80.29
2023-01-31T07:52:37.242Z,80.26
2023-01-31T07:53:40.384Z,80.12
2023-01-31T07:54:42.209Z,80.15
2023-01-31T07:55:43.896Z,79.61
2023-01-31T07:56:45.635Z,79.30
2023-01-31T07:57:47.416Z,79.20
2023-01-31T07:58:51.506Z,78.77
2023-01-31T07:59:53.260Z,78.83
2023-01-31T08:00:55.227Z,78.96
2023-01-31T08:01:56.981Z,79.29
2023-01-31T08:02:58.680Z,79.50
2023-01-31T08:04:10.785Z,79.68
2023-01-31T08:05:20.455Z,79.58
2023-01-31T08:06:22.345Z,79.59
2023-01-31T08:07:26.295Z,79.40
2023-01-31T08:08:29.582Z,79.07
2023-01-31T08:09:32.149Z,79.27
2023-01-31T08:10:34.367Z,79.03
2023-01-31T08:11:36.134Z,79.00
2023-01-31T08:12:37.946Z,78.37
2023-01-31T08:13:39.940Z,78.63
2023-01-31T08:14:41.790Z,78.12
2023-01-31T08:15:43.565Z,77.74
2023-01-31T08:16:45.503Z,77.50
2023-01-31T08:17:47.291Z,76.92
2023-01-31T08:18:49.066Z,76.99
2023-01-31T08:19:50.793Z,77.18
2023-01-31T08:20:52.580Z,77.37
2023-01-31T08:21:54.229Z,77.71
2023-01-31T08:22:57.573Z,77.41
2023-01-31T08:23:59.346Z,78.01
2023-01-31T08:25:01.037Z,78.00
2023-01-31T08:26:08.308Z,78.25
2023-01-31T08:27:10.043Z,78.15
2023-01-31T08:28:14.023Z,78.27
2023-01-31T08:29:16.002Z,78.14
2023-01-31T08:30:18.027Z,78.24
2023-01-31T08:31:22.906Z,78.19
2023-01-31T08:32:24.792Z,77.76
2023-01-31T08:33:26.690Z,77.26
2023-01-31T08:34:28.484Z,76.72
2023-01-31T08:35:30.394Z,76.58
2023-01-31T08:36:32.206Z,76.67
2023-01-31T08:37:35.114Z,76.43
2023-01-31T08:38:37.034Z,76.74
2023-01-31T08:39:38.804Z,77.22
2023-01-31T08:40:40.467Z,77.22
2023-01-31T08:41:42.683Z,77.72
2023-01-31T08:42:44.595Z,77.63
2023-01-31T08:43:56.285Z,78.13
2023-01-31T08:44:58.758Z,78.38
2023-01-31T08:46:00.638Z,78.11
2023-01-31T08:47:02.510Z,77.55
2023-01-31T08:48:05.073Z,76.99
2023-01-31T08:49:07.405Z,75.84
2023-01-31T08:50:22.303Z,74.53
2023-01-31T08:51:29.288Z,74.37
2023-01-31T08:52:31.339Z,73.98
2023-01-31T08:53:33.819Z,73.78
2023-01-31T08:54:35.695Z,72.17
2023-01-31T08:55:37.539Z,72.15
2023-01-31T08:56:39.301Z,72.80
2023-01-31T08:57:56.743Z,71.79
2023-01-31T08:58:59.848Z,72.05
2023-01-31T09:00:01.603Z,71.37
2023-01-31T09:01:08.445Z,71.53
2023-01-31T09:02:11.433Z,70.49
2023-01-31T09:03:15.412Z,70.34
2023-01-31T09:04:17.124Z,69.96
2023-01-31T09:05:19.191Z,69.59
2023-01-31T09:06:22.752Z,69.83
2023-01-31T09:07:24.467Z,69.93
2023-01-31T09:08:27.560Z,69.70
2023-01-31T09:09:30.570Z,69.57
2023-01-31T09:10:32.523Z,70.14
2023-01-31T09:11:34.594Z,69.33
2023-01-31T09:12:36.251Z,69.19
2023-01-31T09:13:38.122Z,69.27
2023-01-31T09:14:39.773Z,68.36
2023-01-31T09:15:41.809Z,68.37
2023-01-31T09:16:43.781Z,68.40
2023-01-31T09:17:45.558Z,67.92
2023-01-31T09:18:47.659Z,67.54
2023-01-31T09:19:49.556Z,67.60
2023-01-31T09:20:51.586Z,67.27
2023-01-31T09:21:53.303Z,66.99
2023-01-31T09:22:55.247Z,66.79
2023-01-31T09:23:59.339Z,65.01
2023-01-31T09:25:01.781Z,65.59
2023-01-31T09:26:03.995Z,65.96
2023-01-31T09:27:05.839Z,65.80
2023-01-31T09:28:07.568Z,65.39
2023-01-31T09:29:09.222Z,66.00
2023-01-31T09:30:11.481Z,65.87
2023-01-31T09:31:16.241Z,66.27
2023-01-31T09:32:18.136Z,66.74
2023-01-31T09:33:21.599Z,65.75
2023-01-31T09:34:23.368Z,64.29
2023-01-31T09:35:25.084Z,64.22
2023-01-31T09:36:26.994Z,64.80
2023-01-31T09:37:32.495Z,65.08
2023-01-31T09:38:34.559Z,64.88
2023-01-31T09:39:36.596Z,63.21
2023-01-31T09:40:39.636Z,62.39
2023-01-31T09:41:53.145Z,61.63
2023-01-31T09:42:56.383Z,61.94
2023-01-31T09:44:23.268Z,63.07
2023-01-31T09:45:34.821Z,63.03
2023-01-31T09:46:47.759Z,63.06
2023-01-31T09:47:52.741Z,62.27
2023-01-31T09:48:56.925Z,62.30
2023-01-31T09:50:04.193Z,62.20
2023-01-31T09:51:06.409Z,62.81
2023-01-31T09:52:11.242Z,61.79
2023-01-31T09:53:15.433Z,61.88
2023-01-31T09:54:28.321Z,61.79
2023-01-31T09:55:48.915Z,62.96
2023-01-31T09:57:29.453Z,62.06
2023-01-31T09:58:50.382Z,62.51
2023-01-31T10:00:03.903Z,64.44
2023-01-31T10:01:17.702Z,64.86
2023-01-31T10:02:28.464Z,63.56
2023-01-31T10:03:33.110Z,62.97
2023-01-31T10:05:02.614Z,61.89
2023-01-31T10:06:24.169Z,62.04
2023-01-31T10:07:31.810Z,61.39
2023-01-31T10:08:48.703Z,59.59
2023-01-31T10:10:02.989Z,59.64
2023-01-31T10:11:12.580Z,60.76
2023-01-31T10:12:19.191Z,59.48
2023-01-31T10:13:26.603Z,59.94
2023-01-31T10:14:45.795Z,57.80
2023-01-31T10:15:56.106Z,60.08
2023-01-31T10:17:07.632Z,60.30
2023-01-31T10:18:32.722Z,58.77
2023-01-31T10:20:21.538Z,59.88
2023-01-31T10:21:31.559Z,60.81
2023-01-31T10:22:36.068Z,61.33
2023-01-31T10:23:46.365Z,61.56
2023-01-31T10:25:03.461Z,61.69
2023-01-31T10:26:29.276Z,63.72
2023-01-31T10:27:40.043Z,62.33
2023-01-31T10:29:14.298Z,62.50
2023-01-31T10:30:24.109Z,62.25
2023-01-31T10:31:29.408Z,61.53
2023-01-31T10:32:36.541Z,61.28
2023-01-31T10:33:47.380Z,61.79
2023-01-31T10:34:56.249Z,61.51
2023-01-31T10:36:03.349Z,61.85
2023-01-31T10:37:32.539Z,63.60
2023-01-31T10:38:41.240Z,63.54
2023-01-31T10:39:53.646Z,64.44
2023-01-31T10:41:09.420Z,64.16
2023-01-31T10:42:20.023Z,62.71
2023-01-31T10:43:34.364Z,62.35
2023-01-31T10:44:58.763Z,62.14
2023-01-31T10:46:01.910Z,62.71
2023-01-31T10:47:13.350Z,63.11
2023-01-31T10:48:24.021Z,62.38
2023-01-31T10:49:27.162Z,61.52
2023-01-31T10:50:42.688Z,61.39
2023-01-31T10:52:23.236Z,62.42
2023-01-31T10:53:54.937Z,63.06
2023-01-31T10:55:22.960Z,62.67
2023-01-31T10:56:43.312Z,63.63
2023-01-31T10:57:45.198Z,64.69
2023-01-31T10:58:47.845Z,64.09
2023-01-31T10:59:51.373Z,64.96
2023-01-31T11:00:53.570Z,65.32
2023-01-31T11:01:55.474Z,65.41
2023-01-31T11:02:58.794Z,65.20
2023-01-31T11:04:02.242Z,66.19
2023-01-31T11:05:04.406Z,66.20
2023-01-31T11:06:06.428Z,67.17
2023-01-31T11:07:09.465Z,67.77
2023-01-31T11:08:28.130Z,67.68
2023-01-31T11:09:34.440Z,68.26
2023-01-31T11:10:52.097Z,68.23
2023-01-31T11:11:56.633Z,68.67
2023-01-31T11:13:01.469Z,68.67
2023-01-31T11:14:15.421Z,70.03
2023-01-31T11:15:20.067Z,70.59
2023-01-31T11:16:22.499Z,70.12
2023-01-31T11:17:24.896Z,70.19
2023-01-31T11:18:31.856Z,70.78
2023-01-31T11:19:39.194Z,71.32
2023-01-31T11:20:48.129Z,70.75
2023-01-31T11:21:54.592Z,71.34
2023-01-31T11:22:57.670Z,71.59
2023-01-31T11:24:21.130Z,71.96
2023-01-31T11:25:25.035Z,72.36
2023-01-31T11:26:36.753Z,72.31
2023-01-31T11:27:40.844Z,72.87
2023-01-31T11:28:49.743Z,72.98
2023-01-31T11:29:51.643Z,72.93
2023-01-31T11:30:54.846Z,73.66
2023-01-31T11:32:00.270Z,74.17
2023-01-31T11:33:02.801Z,73.85
2023-01-31T11:34:17.912Z,73.47
2023-01-31T11:35:19.763Z,73.94
2023-01-31T11:36:21.573Z,74.55
2023-01-31T11:37:25.974Z,75.50
2023-01-31T11:38:28.213Z,76.16
2023-01-31T11:39:39.149Z,76.57
2023-01-31T11:40:41.074Z,76.74
2023-01-31T11:41:42.999Z,76.66
2023-01-31T11:42:59.537Z,76.27
2023-01-31T11:44:11.905Z,76.73
2023-01-31T11:45:23.716Z,77.13
2023-01-31T11:46:25.561Z,77.71
2023-01-31T11:47:38.481Z,78.16
2023-01-31T11:48:44.669Z,78.23
2023-01-31T11:49:49.185Z,78.56
2023-01-31T11:50:56.768Z,78.46
2023-01-31T11:52:02.609Z,79.00
2023-01-31T11:53:19.888Z,78.98
2023-01-31T11:54:26.957Z,78.90
2023-01-31T11:55:37.345Z,78.51
2023-01-31T11:56:39.156Z,78.63
2023-01-31T11:57:41.515Z,78.50
2023-01-31T11:58:45.449Z,78.52
2023-01-31T11:59:53.799Z,79.25
2023-01-31T12:01:05.984Z,79.42
2023-01-31T12:02:31.149Z,79.55
2023-01-31T12:03:34.120Z,79.91
2023-01-31T12:04:42.770Z,80.23
2023-01-31T12:05:50.263Z,79.73
2023-01-31T12:07:23.075Z,79.71
2023-01-31T12:08:31.440Z,79.66
2023-01-31T12:09:51.781Z,79.23
2023-01-31T12:10:53.599Z,78.96
2023-01-31T12:11:59.782Z,79.74
2023-01-31T12:13:18.599Z,79.07
2023-01-31T12:14:21.558Z,78.61
2023-01-31T12:15:23.358Z,78.21
2023-01-31T12:16:27.794Z,77.81
2023-01-31T12:17:32.338Z,77.26
2023-01-31T12:18:39.987Z,77.02
2023-01-31T12:20:27.470Z,76.45
2023-01-31T12:22:07.614Z,76.06
2023-01-31T12:23:23.016Z,76.02
2023-01-31T12:24:54.861Z,76.00
2023-01-31T12:26:13.740Z,75.48
2023-01-31T12:27:26.698Z,75.87
2023-01-31T12:28:46.823Z,76.11
2023-01-31T12:30:15.830Z,75.43
2023-01-31T12:31:43.522Z,75.56
2023-01-31T12:33:09.353Z,75.24
2023-01-31T12:34:47.071Z,76.10
2023-01-31T12:36:20.541Z,76.37
2023-01-31T12:37:36.689Z,75.96
2023-01-31T12:39:12.446Z,74.81
2023-01-31T12:40:34.531Z,75.35
2023-01-31T12:42:01.589Z,75.85
2023-01-31T12:43:15.900Z,75.06
2023-01-31T12:44:39.377Z,74.59
2023-01-31T12:45:49.588Z,73.27
2023-01-31T12:47:19.934Z,72.96
2023-01-31T12:48:53.883Z,72.95
2023-01-31T12:50:10.316Z,73.34
2023-01-31T12:51:34.122Z,73.67
2023-01-31T12:52:58.957Z,73.19
2023-01-31T12:54:19.190Z,73.79
2023-01-31T12:55:32.719Z,73.08
2023-01-31T12:56:54.666Z,73.66
2023-01-31T12:58:11.805Z,73.44
2023-01-31T12:59:38.013Z,74.08
2023-01-31T13:00:48.899Z,74.85
2023-01-31T13:02:13.993Z,75.07
2023-01-31T13:03:52.467Z,75.46
2023-01-31T13:05:04.789Z,75.75
2023-01-31T13:06:20.139Z,74.47
2023-01-31T13:07:28.839Z,74.78
2023-01-31T13:08:33.269Z,75.01
2023-01-31T13:09:36.622Z,74.59
2023-01-31T13:10:43.758Z,75.12
2023-01-31T13:11:52.525Z,75.91
2023-01-31T13:12:55.698Z,75.62
2023-01-31T13:14:01.373Z,74.97
2023-01-31T13:15:08.472Z,74.63
2023-01-31T13:16:38.114Z,74.96
2023-01-31T13:17:42.826Z,75.05
2023-01-31T13:18:47.569Z,75.47
2023-01-31T13:19:52.410Z,74.73
2023-01-31T13:21:02.218Z,75.78
2023-01-31T13:22:15.007Z,76.93
2023-01-31T13:23:43.186Z,77.83
2023-01-31T13:24:50.066Z,78.00
2023-01-31T13:25:56.365Z,78.51
2023-01-31T13:27:10.057Z,77.97
2023-01-31T13:28:28.584Z,78.06
2023-01-31T13:29:38.587Z,78.23
2023-01-31T13:30:50.720Z,78.08
2023-01-31T13:32:06.795Z,77.62
2023-01-31T13:33:23.670Z,76.67
2023-01-31T13:34:34.396Z,76.44
2023-01-31T13:35:41.807Z,76.21
2023-01-31T13:36:48.015Z,76.37
2023-01-31T13:37:53.567Z,75.32
2023-01-31T13:38:56.817Z,75.64
2023-01-31T13:40:15.131Z,75.72
2023-01-31T13:41:19.765Z,75.51
2023-01-31T13:42:21.664Z,75.09
2023-01-31T13:43:23.454Z,73.17
2023-01-31T13:44:25.444Z,73.73
2023-01-31T13:45:34.111Z,73.62
2023-01-31T13:46:54.869Z,73.73
2023-01-31T13:48:05.560Z,73.09
2023-01-31T13:49:17.192Z,73.56
2023-01-31T13:50:41.869Z,73.08
2023-01-31T13:51:50.319Z,73.27
2023-01-31T13:52:55.863Z,73.48
2023-01-31T13:54:26.866Z,72.51
2023-01-31T13:55:38.289Z,72.29
2023-01-31T13:56:41.113Z,72.67
2023-01-31T13:57:46.334Z,72.46
2023-01-31T13:58:51.328Z,72.34
2023-01-31T14:00:17.615Z,72.95
2023-01-31T14:01:35.869Z,73.10
2023-01-31T14:02:37.926Z,73.13
2023-01-31T14:04:18.276Z,72.71
2023-01-31T14:05:43.298Z,73.12
2023-01-31T14:07:16.158Z,72.51
2023-01-31T14:08:36.154Z,72.57
2023-01-31T14:09:59.304Z,72.93
2023-01-31T14:11:03.702Z,73.27
2023-01-31T14:12:11.204Z,73.32
2023-01-31T14:13:33.213Z,73.56
2023-01-31T14:14:35.037Z,73.90
2023-01-31T14:15:51.296Z,73.84
2023-01-31T14:16:53.418Z,74.00
2023-01-31T14:17:55.095Z,73.18
2023-01-31T14:18:56.838Z,73.64
2023-01-31T14:19:58.525Z,73.22
2023-01-31T14:21:28.923Z,73.25
2023-01-31T14:22:35.066Z,72.94
2023-01-31T14:23:46.402Z,72.98
2023-01-31T14:24:48.028Z,73.51
2023-01-31T14:25:49.841Z,73.08